METAR Data
IDs: Format: Raw Decoded Include TAF

Data at: 0901 UTC 09 Apr 2020

UGSB 090900Z VRB01KT 9999 SCT017 BKN029 11/07 Q1018 NOSIG
UGSB 090830Z 00000KT 9999 SCT018 BKN029 11/07 Q1019 NOSIG
UGSB 090800Z 00000KT 9999 SCT018 BKN029 11/07 Q1019 NOSIG
UGSB 090730Z 35002KT 9999 SCT019 BKN028 11/07 Q1019 NOSIG
UGSB 090700Z 33004KT 9999 SCT016 BKN029 11/08 Q1019 NOSIG
UGSB 090630Z 31004KT 9999 SCT018 BKN029 10/07 Q1019 NOSIG
UGSB 090600Z 25004KT 9999 SCT017 BKN026 11/07 Q1019 NOSIG
UGSB 090530Z 00000KT 9999 SCT017 BKN028 10/08 Q1019 NOSIG
UGSB 090500Z 13003KT 9999 SCT019 BKN043 10/07 Q1019 NOSIG
UGSB 090430Z 13004KT 9999 SCT025 BKN060 10/07 Q1019 NOSIG
UGSB 090400Z 12005KT 9999 SCT023 10/08 Q1018 NOSIG
UGSB 090330Z 12004KT 9999 SCT018 09/08 Q1018 NOSIG
UGSB 090300Z 13004KT 9999 SCT020 09/08 Q1018 NOSIG
UGSB 090230Z VRB01KT 9999 SCT020 09/08 Q1018 NOSIG
UGSB 090200Z 09002KT 9999 SCT021 09/08 Q1018 NOSIG
UGSB 090130Z AUTO 13003KT 9999 FEW019 OVC037 09/08 Q1019 NOSIG
UGSB 090100Z AUTO 16003KT 130V210 9999 FEW019 OVC036 10/08 Q1019 NOSIG
UGSB 090030Z AUTO 16003KT 130V190 9999 OVC036 10/08 Q1019 NOSIG
UGSB 090000Z 00000KT 9999 SCT030 10/08 Q1019 NOSIG
UGSB 082330Z 23004KT 9999 SCT030 11/07 Q1019 NOSIG
UGSB 082300Z 26005KT 9999 SCT028 10/07 Q1020 NOSIG
UGSB 082230Z 26006KT 9999 SCT024 11/07 Q1020 NOSIG
UGSB 082200Z 24004KT 9999 SCT021 11/07 Q1020 NOSIG
UGSB 082130Z 25005KT 9999 SCT021 11/07 Q1020 NOSIG